createdAt,value
2023-04-21T00:01:28.179Z,7.78
2023-04-21T00:04:36.123Z,7.79
2023-04-21T00:07:43.595Z,7.89
2023-04-21T00:10:47.049Z,7.81
2023-04-21T00:13:56.312Z,7.74
2023-04-21T00:17:03.797Z,7.72
2023-04-21T00:20:11.469Z,7.74
2023-04-21T00:23:20.887Z,7.72
2023-04-21T00:26:28.400Z,7.72
2023-04-21T00:29:35.763Z,7.67
2023-04-21T00:32:44.972Z,7.72
2023-04-21T00:35:51.964Z,7.67
2023-04-21T00:38:59.852Z,7.58
2023-04-21T00:42:08.932Z,7.60
2023-04-21T00:45:15.988Z,7.66
2023-04-21T00:48:23.712Z,7.66
2023-04-21T00:51:31.506Z,7.62
2023-04-21T00:54:39.979Z,7.62
2023-04-21T00:57:47.723Z,7.66
2023-04-21T01:00:55.266Z,7.63
2023-04-21T01:04:04.147Z,7.59
2023-04-21T01:07:11.871Z,7.56
2023-04-21T01:10:19.299Z,7.47
2023-04-21T01:13:28.640Z,7.49
2023-04-21T01:16:36.212Z,7.55
2023-04-21T01:19:43.407Z,7.47
2023-04-21T01:22:52.890Z,7.42
2023-04-21T01:26:00.345Z,7.42
2023-04-21T01:29:07.821Z,7.49
2023-04-21T01:32:15.787Z,7.42
2023-04-21T01:35:24.249Z,7.38
2023-04-21T01:38:31.870Z,7.40
2023-04-21T01:41:39.634Z,7.42
2023-04-21T01:44:48.205Z,7.52
2023-04-21T01:47:56.022Z,7.50
2023-04-21T01:51:03.513Z,7.49
2023-04-21T01:54:12.425Z,7.47
2023-04-21T01:57:20.274Z,7.42
2023-04-21T02:00:27.710Z,7.49
2023-04-21T02:03:36.751Z,7.42
2023-04-21T02:06:44.181Z,7.41
2023-04-21T02:09:51.973Z,7.35
2023-04-21T02:12:59.495Z,7.38
2023-04-21T02:16:13.484Z,7.38
2023-04-21T02:19:10.803Z,7.47
2023-04-21T02:22:18.739Z,7.53
2023-04-21T02:25:27.230Z,7.52
2023-04-21T02:28:35.310Z,7.50
2023-04-21T02:31:57.399Z,7.42
2023-04-21T02:34:48.350Z,7.34
2023-04-21T02:37:56.249Z,7.20
2023-04-21T02:41:03.846Z,7.24
2023-04-21T02:44:12.979Z,7.13
2023-04-21T02:47:20.698Z,6.99
2023-04-21T02:50:27.930Z,6.97
2023-04-21T02:53:36.736Z,7.04
2023-04-21T02:56:44.470Z,7.08
2023-04-21T02:59:51.901Z,7.13
2023-04-21T03:02:59.492Z,7.22
2023-04-21T03:06:08.696Z,7.27
2023-04-21T03:09:16.232Z,7.24
2023-04-21T03:12:23.845Z,7.20
2023-04-21T03:15:32.566Z,7.19
2023-04-21T03:18:40.147Z,7.13
2023-04-21T03:21:47.531Z,7.09
2023-04-21T03:24:56.314Z,7.17
2023-04-21T03:28:03.883Z,7.16
2023-04-21T03:31:11.462Z,7.12
2023-04-21T03:34:20.269Z,7.17
2023-04-21T03:37:28.321Z,7.12
2023-04-21T03:40:35.426Z,7.01
2023-04-21T03:43:43.036Z,6.86
2023-04-21T03:46:52.207Z,6.76
2023-04-21T03:49:59.252Z,6.76
2023-04-21T03:53:07.071Z,6.65
2023-04-21T03:56:15.879Z,6.54
2023-04-21T03:59:23.337Z,6.46
2023-04-21T04:02:31.455Z,6.32
2023-04-21T04:05:40.622Z,6.28
2023-04-21T04:08:48.119Z,6.30
2023-04-21T04:11:55.151Z,6.43
2023-04-21T04:15:04.458Z,6.44
2023-04-21T04:18:11.808Z,6.63
2023-04-21T04:21:19.469Z,6.66
2023-04-21T04:24:27.339Z,6.61
2023-04-21T04:27:35.940Z,6.48
2023-04-21T04:30:43.756Z,6.36
2023-04-21T04:33:54.693Z,6.33
2023-04-21T04:36:53.068Z,6.22
2023-04-21T04:40:00.841Z,6.19
2023-04-21T04:43:08.542Z,6.22
2023-04-21T04:46:17.115Z,6.25
2023-04-21T04:49:24.899Z,6.25
2023-04-21T04:52:32.597Z,6.28
2023-04-21T04:55:41.057Z,6.28
2023-04-21T04:58:48.784Z,6.29
2023-04-21T05:01:56.486Z,6.41
2023-04-21T05:05:03.469Z,6.47
2023-04-21T05:08:13.258Z,6.58
2023-04-21T05:11:21.608Z,6.63
2023-04-21T05:14:29.170Z,6.66
2023-04-21T05:17:38.545Z,6.76
2023-04-21T05:20:46.059Z,6.89
2023-04-21T05:23:53.640Z,7.05
2023-04-21T05:27:02.580Z,7.17
2023-04-21T05:30:10.492Z,7.24
2023-04-21T05:33:18.217Z,7.41
2023-04-21T05:36:26.911Z,7.59
2023-04-21T05:39:35.088Z,7.84
2023-04-21T05:42:42.874Z,8.10
2023-04-21T05:45:50.347Z,8.29
2023-04-21T05:48:59.619Z,8.51
2023-04-21T05:52:06.797Z,8.66
2023-04-21T05:55:14.677Z,8.88
2023-04-21T05:58:23.715Z,9.12
2023-04-21T06:01:25.894Z,9.34
2023-04-21T06:04:35.315Z,9.56
2023-04-21T06:07:44.555Z,9.76
2023-04-21T06:10:52.551Z,9.94
2023-04-21T06:14:00.140Z,10.04
2023-04-21T06:17:09.303Z,10.19
2023-04-21T06:20:17.556Z,10.32
2023-04-21T06:23:24.899Z,10.44
2023-04-21T06:26:34.192Z,10.62
2023-04-21T06:29:42.288Z,10.71
2023-04-21T06:32:49.646Z,10.78
2023-04-21T06:35:57.676Z,10.91
2023-04-21T06:39:06.780Z,11.03
2023-04-21T06:42:14.341Z,11.11
2023-04-21T06:45:22.409Z,11.17
2023-04-21T06:48:31.536Z,11.25
2023-04-21T06:51:39.213Z,11.39
2023-04-21T06:54:47.166Z,11.52
2023-04-21T06:57:56.315Z,11.64
2023-04-21T07:01:04.275Z,11.71
2023-04-21T07:04:12.404Z,11.83
2023-04-21T07:07:21.215Z,12.05
2023-04-21T07:10:28.542Z,12.23
2023-04-21T07:13:36.204Z,12.42
2023-04-21T07:16:44.719Z,12.56
2023-04-21T07:19:53.771Z,12.69
2023-04-21T07:23:01.432Z,12.92
2023-04-21T07:26:09.524Z,13.04
2023-04-21T07:29:18.790Z,13.20
2023-04-21T07:32:26.488Z,13.30
2023-04-21T07:35:34.702Z,13.47
2023-04-21T07:38:43.091Z,13.61
2023-04-21T07:41:51.067Z,13.69
2023-04-21T07:44:59.001Z,13.81
2023-04-21T07:48:07.817Z,14.06
2023-04-21T07:51:15.666Z,14.27
2023-04-21T07:54:23.117Z,14.38
2023-04-21T07:57:30.456Z,14.54
2023-04-21T08:00:39.325Z,14.67
2023-04-21T08:03:46.932Z,14.78
2023-04-21T08:06:55.328Z,14.93
2023-04-21T08:10:04.383Z,15.01
2023-04-21T08:13:12.349Z,15.11
2023-04-21T08:16:20.733Z,15.13
2023-04-21T08:19:29.755Z,15.21
2023-04-21T08:22:37.282Z,15.28
2023-04-21T08:25:45.160Z,15.43
2023-04-21T08:28:53.998Z,15.51
2023-04-21T08:32:02.210Z,15.64
2023-04-21T08:35:10.506Z,15.82
2023-04-21T08:38:17.847Z,15.92
2023-04-21T08:41:27.409Z,16.04
2023-04-21T08:44:35.595Z,16.18
2023-04-21T08:47:43.261Z,16.30
2023-04-21T08:50:52.840Z,16.49
2023-04-21T08:54:00.261Z,16.58
2023-04-21T08:57:15.457Z,16.67
2023-04-21T09:00:13.815Z,16.74
2023-04-21T09:03:26.050Z,16.86
2023-04-21T09:06:23.593Z,16.96
2023-04-21T09:09:32.470Z,17.13
2023-04-21T09:12:40.443Z,17.25
2023-04-21T09:15:47.807Z,17.33
2023-04-21T09:18:54.925Z,17.46
2023-04-21T09:22:04.210Z,17.55
2023-04-21T09:25:11.531Z,17.55
2023-04-21T09:28:19.322Z,17.71
2023-04-21T09:31:28.507Z,17.91
2023-04-21T09:34:36.121Z,18.13
2023-04-21T09:37:43.876Z,18.18
2023-04-21T09:40:53.017Z,18.21
2023-04-21T09:44:00.604Z,18.39
2023-04-21T09:47:08.092Z,18.43
2023-04-21T09:50:20.558Z,18.42
2023-04-21T09:53:21.954Z,18.43
2023-04-21T09:56:29.498Z,18.50
2023-04-21T09:59:38.581Z,18.74
2023-04-21T10:02:46.629Z,18.87
2023-04-21T10:05:54.083Z,18.91
2023-04-21T10:09:02.113Z,19.02
2023-04-21T10:12:11.314Z,19.13
2023-04-21T10:15:18.493Z,19.29
2023-04-21T10:18:26.404Z,19.32
2023-04-21T10:21:35.201Z,19.35
2023-04-21T10:24:42.767Z,19.53
2023-04-21T10:27:50.416Z,19.58
2023-04-21T10:30:59.484Z,19.68
2023-04-21T10:34:07.424Z,19.65
2023-04-21T10:37:15.372Z,19.79
2023-04-21T10:40:36.431Z,19.86
2023-04-21T10:43:29.330Z,19.93
2023-04-21T10:46:37.031Z,20.06
2023-04-21T10:49:45.044Z,20.10
2023-04-21T10:52:53.970Z,19.94
2023-04-21T10:56:01.187Z,19.73
2023-04-21T10:59:08.787Z,19.83
2023-04-21T11:02:18.243Z,19.91
2023-04-21T11:05:25.537Z,20.02
2023-04-21T11:08:33.397Z,20.12
2023-04-21T11:11:42.396Z,20.64
2023-04-21T11:14:49.891Z,20.80
2023-04-21T11:17:57.644Z,21.02
2023-04-21T11:21:06.587Z,21.04
2023-04-21T11:24:14.081Z,20.96
2023-04-21T11:27:21.806Z,21.16
2023-04-21T11:30:28.950Z,21.38
2023-04-21T11:33:38.061Z,21.41
2023-04-21T11:36:45.376Z,21.48
2023-04-21T11:39:53.159Z,21.42
2023-04-21T11:43:02.109Z,21.36
2023-04-21T11:46:09.671Z,21.59
2023-04-21T11:49:17.709Z,22.01
2023-04-21T11:52:26.366Z,22.14
2023-04-21T11:55:34.108Z,22.02
2023-04-21T11:58:42.040Z,22.09
2023-04-21T12:01:50.862Z,22.27
2023-04-21T12:04:59.536Z,21.78
2023-04-21T12:08:07.244Z,21.64
2023-04-21T12:11:15.610Z,21.59
2023-04-21T12:14:23.447Z,21.92
2023-04-21T12:17:31.036Z,21.91
2023-04-21T12:20:38.041Z,21.91
2023-04-21T12:23:47.294Z,21.72
2023-04-21T12:26:54.806Z,21.85
2023-04-21T12:30:02.391Z,22.04
2023-04-21T12:33:11.586Z,21.85
2023-04-21T12:36:18.849Z,21.90
2023-04-21T12:39:26.452Z,22.01
2023-04-21T12:42:37.860Z,21.91
2023-04-21T12:45:45.963Z,21.71
2023-04-21T12:48:53.500Z,21.46
2023-04-21T12:52:02.628Z,21.81
2023-04-21T12:55:10.046Z,21.83
2023-04-21T12:58:17.424Z,22.09
2023-04-21T13:01:25.101Z,22.06
2023-04-21T13:04:34.374Z,22.22
2023-04-21T13:07:41.753Z,22.31
2023-04-21T13:10:49.352Z,22.46
2023-04-21T13:13:58.552Z,22.41
2023-04-21T13:17:06.010Z,22.25
2023-04-21T13:20:13.337Z,22.37
2023-04-21T13:23:22.435Z,22.54
2023-04-21T13:26:30.218Z,22.62
2023-04-21T13:29:37.924Z,22.44
2023-04-21T13:32:48.201Z,22.39
2023-04-21T13:35:55.465Z,22.50
2023-04-21T13:39:04.285Z,22.47
2023-04-21T13:42:10.150Z,22.49
2023-04-21T13:45:17.407Z,22.57
2023-04-21T13:48:25.087Z,22.74
2023-04-21T13:51:34.325Z,22.64
2023-04-21T13:54:41.453Z,22.19
2023-04-21T13:57:49.279Z,22.13
2023-04-21T14:00:57.359Z,22.14
2023-04-21T14:04:06.417Z,22.16
2023-04-21T14:07:14.948Z,22.29
2023-04-21T14:10:22.776Z,22.19
2023-04-21T14:13:37.867Z,21.95
2023-04-21T14:16:37.226Z,22.16
2023-04-21T14:19:45.161Z,22.02
2023-04-21T14:22:53.776Z,21.74
2023-04-21T14:26:01.826Z,21.85
2023-04-21T14:29:09.711Z,22.27
2023-04-21T14:32:19.122Z,22.37
2023-04-21T14:35:26.690Z,22.44
2023-04-21T14:38:34.577Z,22.46
2023-04-21T14:41:42.055Z,22.52
2023-04-21T14:44:50.909Z,22.14
2023-04-21T14:47:59.054Z,22.19
2023-04-21T14:51:06.575Z,22.34
2023-04-21T14:54:15.240Z,22.10
2023-04-21T14:57:23.107Z,22.34
2023-04-21T15:00:30.661Z,22.54
2023-04-21T15:03:39.735Z,22.52
2023-04-21T15:06:47.460Z,22.28
2023-04-21T15:09:54.843Z,22.06
2023-04-21T15:13:03.813Z,22.09
2023-04-21T15:16:11.402Z,22.07
2023-04-21T15:19:18.619Z,22.28
2023-04-21T15:22:27.965Z,22.16
2023-04-21T15:25:35.627Z,22.17
2023-04-21T15:28:43.002Z,22.22
2023-04-21T15:31:50.533Z,22.28
2023-04-21T15:35:00.163Z,22.29
2023-04-21T15:38:07.519Z,22.25
2023-04-21T15:41:15.610Z,22.28
2023-04-21T15:44:24.864Z,22.25
2023-04-21T15:47:33.464Z,22.17
2023-04-21T15:50:42.042Z,22.17
2023-04-21T15:53:50.908Z,22.10
2023-04-21T15:56:58.549Z,22.10
2023-04-21T16:00:06.829Z,21.95
2023-04-21T16:03:16.646Z,21.83
2023-04-21T16:06:24.401Z,21.59
2023-04-21T16:09:32.377Z,21.59
2023-04-21T16:12:40.320Z,21.69
2023-04-21T16:15:49.181Z,21.67
2023-04-21T16:18:56.214Z,21.66
2023-04-21T16:22:04.242Z,21.61
2023-04-21T16:25:13.696Z,21.54
2023-04-21T16:28:20.845Z,21.44
2023-04-21T16:31:28.664Z,21.42
2023-04-21T16:34:38.116Z,21.27
2023-04-21T16:37:45.875Z,21.19
2023-04-21T16:40:53.528Z,21.06
2023-04-21T16:44:02.618Z,20.99
2023-04-21T16:47:10.649Z,20.98
2023-04-21T16:50:18.225Z,20.81
2023-04-21T16:53:26.357Z,20.68
2023-04-21T16:56:35.372Z,20.53
2023-04-21T16:59:43.162Z,20.38
2023-04-21T17:02:50.945Z,20.27
2023-04-21T17:05:59.775Z,20.24
2023-04-21T17:09:07.135Z,20.05
2023-04-21T17:12:14.549Z,19.87
2023-04-21T17:15:23.410Z,19.68
2023-04-21T17:18:30.772Z,19.57
2023-04-21T17:21:38.860Z,19.42
2023-04-21T17:27:57.693Z,19.21
2023-04-21T17:31:14.964Z,19.06
2023-04-21T17:34:12.267Z,19.01
2023-04-21T17:37:19.270Z,18.91
2023-04-21T17:40:27.238Z,18.79
2023-04-21T17:43:35.087Z,18.65
2023-04-21T17:46:44.118Z,18.54
2023-04-21T17:49:52.215Z,18.42
2023-04-21T17:52:59.660Z,18.29
2023-04-21T17:56:08.611Z,18.18
2023-04-21T17:59:16.452Z,18.07
2023-04-21T18:02:23.943Z,17.95
2023-04-21T18:05:32.739Z,17.84
2023-04-21T18:08:40.588Z,17.73
2023-04-21T18:11:48.125Z,17.63
2023-04-21T18:14:57.348Z,17.47
2023-04-21T18:18:04.886Z,17.32
2023-04-21T18:21:12.799Z,17.22
2023-04-21T18:24:20.262Z,17.10
2023-04-21T18:27:29.205Z,17.06
2023-04-21T18:30:37.008Z,16.99
2023-04-21T18:33:44.300Z,16.92
2023-04-21T18:36:53.223Z,16.81
2023-04-21T18:40:00.920Z,16.74
2023-04-21T18:43:08.054Z,16.60
2023-04-21T18:46:17.280Z,16.56
2023-04-21T18:49:24.941Z,16.53
2023-04-21T18:52:31.990Z,16.50
2023-04-21T18:55:41.083Z,16.40
2023-04-21T18:58:48.854Z,16.38
2023-04-21T19:01:55.995Z,16.34
2023-04-21T19:05:03.770Z,16.33
2023-04-21T19:08:12.822Z,16.26
2023-04-21T19:11:19.861Z,16.18
2023-04-21T19:14:27.737Z,16.15
2023-04-21T19:17:36.581Z,16.09
2023-04-21T19:20:43.958Z,16.07
2023-04-21T19:23:51.992Z,16.03
2023-04-21T19:27:00.727Z,15.99
2023-04-21T19:30:08.217Z,15.89
2023-04-21T19:33:16.247Z,15.85
2023-04-21T19:36:25.182Z,15.85
2023-04-21T19:39:32.644Z,15.92
2023-04-21T19:42:41.938Z,15.85
2023-04-21T19:45:49.539Z,15.79
2023-04-21T19:48:58.447Z,15.70
2023-04-21T19:52:05.915Z,15.66
2023-04-21T19:55:13.835Z,15.63
2023-04-21T19:58:38.905Z,15.57
2023-04-21T20:01:26.835Z,15.56
2023-04-21T20:04:34.557Z,15.54
2023-04-21T20:07:43.657Z,15.52
2023-04-21T20:10:51.035Z,15.48
2023-04-21T20:13:58.872Z,15.49
2023-04-21T20:17:07.482Z,15.51
2023-04-21T20:20:15.198Z,15.51
2023-04-21T20:23:22.871Z,15.59
2023-04-21T20:26:31.460Z,15.57
2023-04-21T20:29:39.583Z,15.51
2023-04-21T20:32:47.755Z,15.52
2023-04-21T20:35:54.750Z,15.49
2023-04-21T20:39:03.585Z,15.48
2023-04-21T20:42:13.437Z,15.43
2023-04-21T20:45:20.946Z,15.36
2023-04-21T20:48:30.217Z,15.31
2023-04-21T20:51:37.667Z,15.27
2023-04-21T20:54:45.083Z,15.26
2023-04-21T20:57:54.299Z,15.21
2023-04-21T21:01:01.720Z,15.11
2023-04-21T21:04:09.136Z,15.09
2023-04-21T21:07:18.594Z,15.06
2023-04-21T21:10:25.733Z,14.98
2023-04-21T21:13:33.180Z,14.84
2023-04-21T21:16:40.793Z,14.75
2023-04-21T21:19:50.039Z,14.72
2023-04-21T21:22:57.472Z,14.65
2023-04-21T21:26:04.619Z,14.65
2023-04-21T21:29:13.892Z,14.61
2023-04-21T21:32:21.752Z,14.50
2023-04-21T21:35:28.885Z,14.43
2023-04-21T21:38:38.182Z,14.32
2023-04-21T21:41:46.044Z,14.24
2023-04-21T21:44:53.385Z,14.12
2023-04-21T21:48:02.284Z,13.99
2023-04-21T21:51:09.347Z,13.91
2023-04-21T21:54:16.836Z,13.81
2023-04-21T21:57:25.493Z,13.74
2023-04-21T22:00:35.661Z,13.67
2023-04-21T22:03:44.586Z,13.61
2023-04-21T22:06:52.658Z,13.55
2023-04-21T22:10:01.757Z,13.52
2023-04-21T22:13:09.414Z,13.47
2023-04-21T22:16:17.362Z,13.40
2023-04-21T22:19:26.358Z,13.33
2023-04-21T22:22:34.009Z,13.27
2023-04-21T22:25:41.262Z,13.21
2023-04-21T22:28:50.413Z,13.17
2023-04-21T22:31:57.897Z,13.12
2023-04-21T22:35:05.348Z,13.07
2023-04-21T22:38:13.259Z,13.04
2023-04-21T22:41:22.268Z,13.00
2023-04-21T22:44:29.524Z,12.99
2023-04-21T22:47:37.499Z,12.96
2023-04-21T22:50:46.553Z,12.96
2023-04-21T22:53:53.753Z,12.95
2023-04-21T22:57:01.791Z,12.95
2023-04-21T23:00:10.639Z,12.89
2023-04-21T23:03:18.186Z,12.87
2023-04-21T23:06:26.110Z,12.81
2023-04-21T23:09:34.849Z,12.77
2023-04-21T23:12:42.225Z,12.71
2023-04-21T23:15:49.992Z,12.70
2023-04-21T23:18:59.107Z,12.66
2023-04-21T23:22:06.739Z,12.60
2023-04-21T23:25:14.559Z,12.57
2023-04-21T23:28:22.051Z,12.54
2023-04-21T23:31:30.852Z,12.54
2023-04-21T23:34:37.902Z,12.51
2023-04-21T23:37:45.871Z,12.48
2023-04-21T23:40:55.115Z,12.42
2023-04-21T23:44:02.244Z,12.39
2023-04-21T23:47:09.740Z,12.38
2023-04-21T23:50:18.790Z,12.31
2023-04-21T23:53:25.940Z,12.33
2023-04-21T23:56:33.824Z,12.31
2023-04-21T23:59:42.305Z,12.30
